createdAt,value
2023-08-15T00:02:52.824Z,4.90
2023-08-15T00:05:54.643Z,5.15
2023-08-15T00:08:56.432Z,4.13
2023-08-15T00:11:58.330Z,4.55
2023-08-15T00:14:59.974Z,5.22
2023-08-15T00:18:03.563Z,4.53
2023-08-15T00:21:05.297Z,3.03
2023-08-15T00:24:07.262Z,5.35
2023-08-15T00:27:08.893Z,5.32
2023-08-15T00:30:11.340Z,4.40
2023-08-15T00:33:14.413Z,3.58
2023-08-15T00:36:16.087Z,4.63
2023-08-15T00:39:17.859Z,6.95
2023-08-15T00:42:19.549Z,5.50
2023-08-15T00:45:21.374Z,5.60
2023-08-15T00:48:30.770Z,4.18
2023-08-15T00:51:33.184Z,3.80
2023-08-15T00:54:36.833Z,6.35
2023-08-15T00:57:38.630Z,4.32
2023-08-15T01:00:41.363Z,4.72
2023-08-15T01:03:45.408Z,3.17
2023-08-15T01:06:47.126Z,3.95
2023-08-15T01:09:49.161Z,4.15
2023-08-15T01:12:58.967Z,5.57
2023-08-15T01:16:03.805Z,6.00
2023-08-15T01:19:18.678Z,4.65
2023-08-15T01:22:23.354Z,4.03
2023-08-15T01:25:27.731Z,3.97
2023-08-15T01:28:29.435Z,5.43
2023-08-15T01:31:35.500Z,7.80
2023-08-15T01:34:45.941Z,9.52
2023-08-15T01:37:57.550Z,6.15
2023-08-15T01:41:02.459Z,5.82
2023-08-15T01:44:07.365Z,8.23
2023-08-15T01:47:09.160Z,4.90
2023-08-15T01:50:10.821Z,5.07
2023-08-15T01:53:12.531Z,5.32
2023-08-15T01:56:16.480Z,4.32
2023-08-15T01:59:18.367Z,5.20
2023-08-15T02:02:20.338Z,6.63
2023-08-15T02:05:22.248Z,4.68
2023-08-15T02:08:24.198Z,6.75
2023-08-15T02:11:27.395Z,4.65
2023-08-15T02:14:30.816Z,4.85
2023-08-15T02:17:32.643Z,6.05
2023-08-15T02:20:36.505Z,4.47
2023-08-15T02:23:38.335Z,6.03
2023-08-15T02:26:41.361Z,7.13
2023-08-15T02:29:44.978Z,7.32
2023-08-15T02:32:48.370Z,7.50
2023-08-15T02:35:51.996Z,6.53
2023-08-15T02:38:53.727Z,5.53
2023-08-15T02:41:56.692Z,4.65
2023-08-15T02:44:58.356Z,5.60
2023-08-15T02:48:00.041Z,6.15
2023-08-15T02:51:03.819Z,7.60
2023-08-15T02:54:07.545Z,4.13
2023-08-15T02:57:10.552Z,6.93
2023-08-15T03:00:13.254Z,7.22
2023-08-15T03:03:15.443Z,7.97
2023-08-15T03:06:17.253Z,6.90
2023-08-15T03:09:18.963Z,6.70
2023-08-15T03:12:22.062Z,6.07
2023-08-15T03:15:23.745Z,5.90
2023-08-15T03:18:25.599Z,6.72
2023-08-15T03:21:30.792Z,8.77
2023-08-15T03:24:32.556Z,10.88
2023-08-15T03:27:35.670Z,7.88
2023-08-15T03:30:37.880Z,6.65
2023-08-15T03:33:40.159Z,5.63
2023-08-15T03:36:42.428Z,7.43
2023-08-15T03:39:44.155Z,6.30
2023-08-15T03:42:47.149Z,5.07
2023-08-15T03:45:49.979Z,6.38
2023-08-15T03:48:51.734Z,5.97
2023-08-15T03:51:54.075Z,4.75
2023-08-15T03:54:56.258Z,6.15
2023-08-15T03:57:59.330Z,4.38
2023-08-15T04:01:02.450Z,4.88
2023-08-15T04:04:05.868Z,8.23
2023-08-15T04:07:07.669Z,8.38
2023-08-15T04:10:13.062Z,7.32
2023-08-15T04:13:16.222Z,4.20
2023-08-15T04:16:20.232Z,8.10
2023-08-15T04:19:22.009Z,5.45
2023-08-15T04:22:24.609Z,7.85
2023-08-15T04:25:27.009Z,4.65
2023-08-15T04:28:32.078Z,5.97
2023-08-15T04:31:33.961Z,3.55
2023-08-15T04:34:35.804Z,8.02
2023-08-15T04:37:37.941Z,9.20
2023-08-15T04:40:44.807Z,5.85
2023-08-15T04:43:48.668Z,6.03
2023-08-15T04:46:50.617Z,5.00
2023-08-15T04:49:52.259Z,8.10
2023-08-15T04:52:53.970Z,4.97
2023-08-15T04:55:58.678Z,6.35
2023-08-15T04:59:02.474Z,6.15
2023-08-15T05:02:04.517Z,7.05
2023-08-15T05:05:07.554Z,6.38
2023-08-15T05:08:10.053Z,5.90
2023-08-15T05:11:11.788Z,7.47
2023-08-15T05:14:14.870Z,9.70
2023-08-15T05:17:16.665Z,7.22
2023-08-15T05:20:18.481Z,6.72
2023-08-15T05:23:23.631Z,7.43
2023-08-15T05:26:26.937Z,9.10
2023-08-15T05:29:30.126Z,7.40
2023-08-15T05:32:31.918Z,5.97
2023-08-15T05:35:34.073Z,4.65
2023-08-15T05:38:37.445Z,4.63
2023-08-15T05:41:39.101Z,6.22
2023-08-15T05:44:42.271Z,5.80
2023-08-15T05:47:44.039Z,4.00
2023-08-15T05:50:45.756Z,4.20
2023-08-15T05:53:47.475Z,4.97
2023-08-15T05:56:49.354Z,5.78
2023-08-15T05:59:52.795Z,3.83
2023-08-15T06:02:54.504Z,5.55
2023-08-15T06:05:56.656Z,4.13
2023-08-15T06:08:59.079Z,3.72
2023-08-15T06:12:00.817Z,4.88
2023-08-15T06:15:04.156Z,3.85
2023-08-15T06:18:06.413Z,3.55
2023-08-15T06:21:08.066Z,3.47
2023-08-15T06:24:10.528Z,3.88
2023-08-15T06:27:12.402Z,3.10
2023-08-15T06:30:15.692Z,3.25
2023-08-15T06:33:17.423Z,2.60
2023-08-15T06:36:19.083Z,4.10
2023-08-15T06:39:21.553Z,4.25
2023-08-15T06:42:23.226Z,2.85
2023-08-15T06:45:26.329Z,2.30
2023-08-15T06:48:28.060Z,2.33
2023-08-15T06:51:29.844Z,4.45
2023-08-15T06:54:31.714Z,3.42
2023-08-15T06:57:34.147Z,3.42
2023-08-15T07:00:37.276Z,3.83
2023-08-15T07:03:39.308Z,2.67
2023-08-15T07:06:41.252Z,2.03
2023-08-15T07:09:43.037Z,10.13
2023-08-15T07:12:45.873Z,2.53
2023-08-15T07:15:55.668Z,2.38
2023-08-15T07:18:57.477Z,2.53
2023-08-15T07:21:59.249Z,1.15
2023-08-15T07:25:01.780Z,1.42
2023-08-15T07:28:03.998Z,2.80
2023-08-15T07:31:07.119Z,2.00
2023-08-15T07:34:08.870Z,2.08
2023-08-15T07:37:11.194Z,3.58
2023-08-15T07:40:20.366Z,1.40
2023-08-15T07:43:22.038Z,3.88
2023-08-15T07:46:25.210Z,2.67
2023-08-15T07:49:27.270Z,2.65
2023-08-15T07:52:29.077Z,2.53
2023-08-15T07:55:33.527Z,4.57
2023-08-15T07:58:36.471Z,5.25
2023-08-15T08:01:39.942Z,2.38
2023-08-15T08:04:44.103Z,2.67
2023-08-15T08:07:46.185Z,2.63
2023-08-15T08:10:47.867Z,2.03
2023-08-15T08:13:49.593Z,1.58
2023-08-15T08:16:52.626Z,3.88
2023-08-15T08:19:55.427Z,2.83
2023-08-15T08:22:57.147Z,2.60
2023-08-15T08:25:58.838Z,2.20
2023-08-15T08:29:00.548Z,2.55
2023-08-15T08:32:03.844Z,2.72
2023-08-15T08:35:06.876Z,2.50
2023-08-15T08:38:08.647Z,2.00
2023-08-15T08:41:10.810Z,3.30
2023-08-15T08:44:13.914Z,2.88
2023-08-15T08:47:20.861Z,1.83
2023-08-15T08:50:22.948Z,4.82
2023-08-15T08:53:28.451Z,1.95
2023-08-15T08:56:32.514Z,2.65
2023-08-15T08:59:37.764Z,2.67
2023-08-15T09:02:41.491Z,3.22
2023-08-15T09:05:43.417Z,2.45
2023-08-15T09:09:34.198Z,3.60
2023-08-15T09:12:37.300Z,2.55
2023-08-15T09:15:41.097Z,4.05
2023-08-15T09:18:43.604Z,2.72
2023-08-15T09:21:45.645Z,1.67
2023-08-15T09:24:48.669Z,2.55
2023-08-15T09:27:51.007Z,3.25
2023-08-15T09:30:56.025Z,4.13
2023-08-15T09:33:58.238Z,2.55
2023-08-15T09:37:00.100Z,1.73
2023-08-15T09:40:05.437Z,3.78
2023-08-15T09:43:09.302Z,3.63
2023-08-15T09:46:11.022Z,2.25
2023-08-15T09:49:12.824Z,2.05
2023-08-15T09:52:15.462Z,3.40
2023-08-15T09:55:18.620Z,2.58
2023-08-15T09:58:20.448Z,2.63
2023-08-15T10:01:27.993Z,2.70
2023-08-15T10:04:32.875Z,1.90
2023-08-15T10:07:35.845Z,2.20
2023-08-15T10:10:40.610Z,3.33
2023-08-15T10:13:45.916Z,3.03
2023-08-15T10:16:47.870Z,4.25
2023-08-15T10:19:50.084Z,2.83
2023-08-15T10:22:54.397Z,2.42
2023-08-15T10:25:58.232Z,4.88
2023-08-15T10:28:59.948Z,3.33
2023-08-15T10:32:01.739Z,3.38
2023-08-15T10:35:06.490Z,4.70
2023-08-15T10:38:14.785Z,5.63
2023-08-15T10:41:21.425Z,3.45
2023-08-15T10:44:23.107Z,3.05
2023-08-15T10:47:24.991Z,3.92
2023-08-15T10:50:26.964Z,4.13
2023-08-15T10:53:28.636Z,4.05
2023-08-15T10:56:34.228Z,3.05
2023-08-15T10:59:37.218Z,6.03
2023-08-15T11:02:38.990Z,3.83
2023-08-15T11:05:40.807Z,4.40
2023-08-15T11:08:43.174Z,3.50
2023-08-15T11:11:47.095Z,4.40
2023-08-15T11:14:50.463Z,3.13
2023-08-15T11:17:52.170Z,2.60
2023-08-15T11:20:53.940Z,2.83
2023-08-15T11:23:59.144Z,2.40
2023-08-15T11:27:03.343Z,3.13
2023-08-15T11:30:06.031Z,2.95
2023-08-15T11:33:07.770Z,3.92
2023-08-15T11:36:13.257Z,3.42
2023-08-15T11:39:15.392Z,2.97
2023-08-15T11:42:19.183Z,3.10
2023-08-15T11:45:23.992Z,3.10
2023-08-15T11:48:25.906Z,2.53
2023-08-15T11:51:28.340Z,3.88
2023-08-15T11:54:30.034Z,3.47
2023-08-15T11:57:36.331Z,2.70
2023-08-15T12:00:38.037Z,3.22
2023-08-15T12:03:40.315Z,3.50
2023-08-15T12:06:42.160Z,8.75
2023-08-15T12:09:43.929Z,2.35
2023-08-15T12:12:47.830Z,4.00
2023-08-15T12:15:49.855Z,4.70
2023-08-15T12:18:51.632Z,2.50
2023-08-15T12:21:54.065Z,2.78
2023-08-15T12:24:56.358Z,3.67
2023-08-15T12:27:59.368Z,2.15
2023-08-15T12:31:01.144Z,3.03
2023-08-15T12:34:03.024Z,2.55
2023-08-15T12:37:04.671Z,4.20
2023-08-15T12:40:14.835Z,3.60
2023-08-15T12:43:24.953Z,3.70
2023-08-15T12:46:26.658Z,2.85
2023-08-15T12:49:28.487Z,2.53
2023-08-15T12:52:30.379Z,2.15
2023-08-15T12:55:32.153Z,1.98
2023-08-15T12:58:35.233Z,3.55
2023-08-15T13:01:38.661Z,2.65
2023-08-15T13:04:42.513Z,2.22
2023-08-15T13:07:44.319Z,2.97
2023-08-15T13:16:53.607Z,2.42
2023-08-15T13:19:55.599Z,2.95
2023-08-15T13:22:57.526Z,2.90
2023-08-15T13:25:59.605Z,4.60
2023-08-15T13:29:02.981Z,2.50
2023-08-15T13:32:04.998Z,3.03
2023-08-15T13:35:07.193Z,2.88
2023-08-15T13:38:09.085Z,3.45
2023-08-15T13:41:11.085Z,3.97
2023-08-15T13:44:14.105Z,3.10
2023-08-15T13:47:15.764Z,3.15
2023-08-15T13:50:17.737Z,3.45
2023-08-15T13:53:19.404Z,2.67
2023-08-15T13:56:21.164Z,4.90
2023-08-15T13:59:24.336Z,3.00
2023-08-15T14:02:26.033Z,4.05
2023-08-15T14:05:27.818Z,3.00
2023-08-15T14:08:29.738Z,2.30
2023-08-15T14:11:31.470Z,1.98
2023-08-15T14:14:34.593Z,4.95
2023-08-15T14:17:36.309Z,3.42
2023-08-15T14:20:39.073Z,5.70
2023-08-15T14:23:44.966Z,3.63
2023-08-15T14:26:46.729Z,3.38
2023-08-15T14:29:50.652Z,3.03
2023-08-15T14:32:52.827Z,2.53
2023-08-15T14:35:54.540Z,2.38
2023-08-15T14:38:56.232Z,2.95
2023-08-15T14:41:58.001Z,3.35
2023-08-15T14:45:01.103Z,4.68
2023-08-15T14:48:03.558Z,2.90
2023-08-15T14:51:05.397Z,3.33
2023-08-15T14:54:07.320Z,3.20
2023-08-15T14:57:09.000Z,2.78
2023-08-15T15:00:13.595Z,2.63
2023-08-15T15:03:15.557Z,2.97
2023-08-15T15:06:19.141Z,2.58
2023-08-15T15:09:20.994Z,2.05
2023-08-15T15:12:22.658Z,2.90
2023-08-15T15:15:40.873Z,2.22
2023-08-15T15:18:47.507Z,1.77
2023-08-15T15:21:50.998Z,1.33
2023-08-15T15:24:52.896Z,2.30
2023-08-15T15:27:54.802Z,3.13
2023-08-15T15:30:58.173Z,2.50
2023-08-15T15:33:59.810Z,2.40
2023-08-15T15:37:01.676Z,1.92
2023-08-15T15:40:04.019Z,2.25
2023-08-15T15:43:05.761Z,1.73
2023-08-15T15:46:08.850Z,2.00
2023-08-15T15:49:10.636Z,2.03
2023-08-15T15:52:12.493Z,1.70
2023-08-15T15:55:14.465Z,2.53
2023-08-15T15:58:16.164Z,3.80
2023-08-15T16:01:19.198Z,2.80
2023-08-15T16:04:20.938Z,3.13
2023-08-15T16:07:22.810Z,2.40
2023-08-15T16:10:24.861Z,4.03
2023-08-15T16:13:26.596Z,2.50
2023-08-15T16:16:29.771Z,2.95
2023-08-15T16:19:31.498Z,3.17
2023-08-15T16:22:33.210Z,1.10
2023-08-15T16:25:35.026Z,1.77
2023-08-15T16:28:37.183Z,7.03
2023-08-15T16:31:40.261Z,2.25
2023-08-15T16:34:41.912Z,2.25
2023-08-15T16:37:46.115Z,2.25
2023-08-15T16:40:48.433Z,2.10
2023-08-15T16:43:51.816Z,1.92
2023-08-15T16:46:55.011Z,1.70
2023-08-15T16:49:56.751Z,1.88
2023-08-15T16:53:00.654Z,1.40
2023-08-15T16:56:02.480Z,1.70
2023-08-15T16:59:04.439Z,2.00
2023-08-15T17:02:07.619Z,3.30
2023-08-15T17:05:09.943Z,4.20
2023-08-15T17:08:11.597Z,4.45
2023-08-15T17:11:13.442Z,3.88
2023-08-15T17:14:15.250Z,2.30
2023-08-15T17:17:18.395Z,2.90
2023-08-15T17:20:20.122Z,6.03
2023-08-15T17:23:21.778Z,1.75
2023-08-15T17:26:27.232Z,2.25
2023-08-15T17:29:29.034Z,2.05
2023-08-15T17:32:32.528Z,2.70
2023-08-15T17:35:34.384Z,2.47
2023-08-15T17:38:36.032Z,1.42
2023-08-15T17:41:37.761Z,3.55
2023-08-15T17:44:39.454Z,2.97
2023-08-15T17:47:42.476Z,1.35
2023-08-15T17:50:46.043Z,1.70
2023-08-15T17:53:48.618Z,1.75
2023-08-15T17:56:50.730Z,2.22
2023-08-15T17:59:52.362Z,1.42
2023-08-15T18:02:56.535Z,0.88
2023-08-15T18:05:58.285Z,2.70
2023-08-15T18:09:00.215Z,1.40
2023-08-15T18:12:02.678Z,1.40
2023-08-15T18:15:05.230Z,7.57
2023-08-15T18:18:08.370Z,1.25
2023-08-15T18:21:10.137Z,2.15
2023-08-15T18:24:11.986Z,1.85
2023-08-15T18:27:13.699Z,1.77
2023-08-15T18:30:15.340Z,1.42
2023-08-15T18:33:18.424Z,1.10
2023-08-15T18:36:20.253Z,1.30
2023-08-15T18:39:23.010Z,1.33
2023-08-15T18:42:24.952Z,1.80
2023-08-15T18:45:26.614Z,1.05
2023-08-15T18:48:29.797Z,1.83
2023-08-15T18:51:32.814Z,1.50
2023-08-15T18:54:34.661Z,1.52
2023-08-15T18:57:36.575Z,3.40
2023-08-15T19:00:39.078Z,1.42
2023-08-15T19:03:42.466Z,1.58
2023-08-15T19:06:44.341Z,1.55
2023-08-15T19:09:46.079Z,1.77
2023-08-15T19:12:47.865Z,1.27
2023-08-15T19:15:49.887Z,2.80
2023-08-15T19:18:53.035Z,2.38
2023-08-15T19:21:54.781Z,1.83
2023-08-15T19:24:56.429Z,2.55
2023-08-15T19:27:58.238Z,1.92
2023-08-15T19:31:00.004Z,1.38
2023-08-15T19:34:03.608Z,4.25
2023-08-15T19:37:05.569Z,1.83
2023-08-15T19:40:09.719Z,2.33
2023-08-15T19:46:13.272Z,1.48
2023-08-15T19:49:16.357Z,2.08
2023-08-15T19:52:18.208Z,2.25
2023-08-15T19:55:20.143Z,2.33
2023-08-15T19:58:22.420Z,1.80
2023-08-15T20:01:24.513Z,3.55
2023-08-15T20:04:28.278Z,2.13
2023-08-15T20:07:29.993Z,2.63
2023-08-15T20:10:31.766Z,2.83
2023-08-15T20:13:33.486Z,2.40
2023-08-15T20:16:35.528Z,4.50
2023-08-15T20:19:38.685Z,2.42
2023-08-15T20:22:40.481Z,3.38
2023-08-15T20:25:42.238Z,3.50
2023-08-15T20:28:43.933Z,3.08
2023-08-15T20:31:45.991Z,2.92
2023-08-15T20:34:49.135Z,2.03
2023-08-15T20:37:50.897Z,1.80
2023-08-15T20:40:52.606Z,7.03
2023-08-15T20:43:54.250Z,2.17
2023-08-15T20:46:56.257Z,2.15
2023-08-15T20:50:00.372Z,1.77
2023-08-15T20:53:02.047Z,3.83
2023-08-15T20:56:03.793Z,2.70
2023-08-15T20:59:05.594Z,4.10
2023-08-15T21:02:07.977Z,2.05
2023-08-15T21:05:13.629Z,1.88
2023-08-15T21:08:15.288Z,1.67
2023-08-15T21:11:16.992Z,3.05
2023-08-15T21:14:18.661Z,2.00
2023-08-15T21:17:20.359Z,2.15
2023-08-15T21:20:24.218Z,3.15
2023-08-15T21:23:25.997Z,2.10
2023-08-15T21:26:27.791Z,2.15
2023-08-15T21:29:29.604Z,3.70
2023-08-15T21:32:31.287Z,1.77
2023-08-15T21:35:34.682Z,2.20
2023-08-15T21:38:36.441Z,2.08
2023-08-15T21:41:38.126Z,2.10
2023-08-15T21:44:40.205Z,3.38
2023-08-15T21:47:41.873Z,2.13
2023-08-15T21:50:44.980Z,2.05
2023-08-15T21:53:46.689Z,2.03
2023-08-15T21:56:48.330Z,1.75
2023-08-15T21:59:50.252Z,2.15
2023-08-15T22:02:52.068Z,3.08
2023-08-15T22:05:55.285Z,3.03
2023-08-15T22:08:56.931Z,2.10
2023-08-15T22:11:58.611Z,3.78
2023-08-15T22:15:00.391Z,1.45
2023-08-15T22:18:17.977Z,1.52
2023-08-15T22:21:24.041Z,2.55
2023-08-15T22:24:25.741Z,4.20
2023-08-15T22:27:27.508Z,1.52
2023-08-15T22:30:29.354Z,1.73
2023-08-15T22:33:31.041Z,5.65
2023-08-15T22:36:35.768Z,2.17
2023-08-15T22:39:37.459Z,5.22
2023-08-15T22:42:39.104Z,2.53
2023-08-15T22:45:42.828Z,1.30
2023-08-15T22:48:44.629Z,3.53
2023-08-15T22:51:47.687Z,1.67
2023-08-15T22:54:49.513Z,2.40
2023-08-15T22:57:51.192Z,3.03
2023-08-15T23:00:55.098Z,1.90
2023-08-15T23:03:56.870Z,1.80
2023-08-15T23:06:59.939Z,3.60
2023-08-15T23:10:01.974Z,3.22
2023-08-15T23:13:03.757Z,1.85
2023-08-15T23:16:05.564Z,5.95
2023-08-15T23:19:07.321Z,2.47
2023-08-15T23:22:10.436Z,1.65
2023-08-15T23:25:12.121Z,1.60
2023-08-15T23:28:13.785Z,4.80
2023-08-15T23:31:15.568Z,3.60
2023-08-15T23:34:17.829Z,5.20
2023-08-15T23:37:21.207Z,2.03
2023-08-15T23:40:23.333Z,3.05
2023-08-15T23:43:25.018Z,1.58
2023-08-15T23:46:26.785Z,2.35
2023-08-15T23:49:28.991Z,3.47
2023-08-15T23:52:32.164Z,3.80
2023-08-15T23:55:33.889Z,2.45
2023-08-15T23:58:35.651Z,1.85
